createdAt,value
2023-04-18T00:00:43.961Z,8.93
2023-04-18T00:03:10.635Z,9.18
2023-04-18T00:05:37.990Z,14.32
2023-04-18T00:08:05.448Z,7.68
2023-04-18T00:10:34.654Z,9.52
2023-04-18T00:13:01.102Z,9.10
2023-04-18T00:15:29.285Z,8.20
2023-04-18T00:17:58.569Z,9.40
2023-04-18T00:20:28.124Z,9.13
2023-04-18T00:22:57.062Z,9.20
2023-04-18T00:25:23.574Z,7.90
2023-04-18T00:27:50.094Z,8.00
2023-04-18T00:30:16.573Z,6.55
2023-04-18T00:32:57.511Z,13.98
2023-04-18T00:35:26.498Z,5.05
2023-04-18T00:38:05.611Z,8.18
2023-04-18T00:40:35.053Z,8.38
2023-04-18T00:43:02.089Z,6.13
2023-04-18T00:45:28.525Z,10.73
2023-04-18T00:47:56.316Z,6.82
2023-04-18T00:50:26.314Z,10.82
2023-04-18T00:52:53.780Z,7.25
2023-04-18T00:55:20.591Z,11.15
2023-04-18T00:57:47.035Z,8.68
2023-04-18T01:00:16.246Z,8.13
2023-04-18T01:02:45.627Z,11.85
2023-04-18T01:05:12.282Z,15.75
2023-04-18T01:07:41.582Z,8.88
2023-04-18T01:10:10.164Z,9.38
2023-04-18T01:12:38.925Z,8.02
2023-04-18T01:15:06.164Z,8.75
2023-04-18T01:17:34.532Z,7.90
2023-04-18T01:20:02.048Z,9.77
2023-04-18T01:22:31.655Z,8.77
2023-04-18T01:24:58.685Z,7.80
2023-04-18T01:27:25.200Z,7.47
2023-04-18T01:29:53.933Z,8.90
2023-04-18T01:32:20.720Z,10.50
2023-04-18T01:34:47.601Z,7.57
2023-04-18T01:37:14.068Z,9.93
2023-04-18T01:39:40.719Z,14.55
2023-04-18T01:42:07.205Z,10.50
2023-04-18T01:44:33.740Z,8.88
2023-04-18T01:47:00.259Z,7.93
2023-04-18T01:49:26.662Z,10.48
2023-04-18T01:51:53.025Z,17.52
2023-04-18T01:54:22.085Z,10.98
2023-04-18T01:56:48.534Z,7.85
2023-04-18T01:59:15.034Z,5.45
2023-04-18T02:01:41.562Z,10.85
2023-04-18T02:04:08.179Z,8.98
2023-04-18T02:06:37.016Z,5.85
2023-04-18T02:09:03.758Z,11.43
2023-04-18T02:11:32.431Z,10.30
2023-04-18T02:13:59.654Z,8.13
2023-04-18T02:16:26.431Z,15.50
2023-04-18T02:18:52.882Z,9.95
2023-04-18T02:21:19.278Z,8.05
2023-04-18T02:23:45.702Z,6.53
2023-04-18T02:26:12.097Z,10.05
2023-04-18T02:28:40.866Z,12.13
2023-04-18T02:31:47.633Z,11.00
2023-04-18T02:34:14.485Z,8.07
2023-04-18T02:36:45.909Z,7.93
2023-04-18T02:39:12.361Z,8.15
2023-04-18T02:41:39.441Z,12.48
2023-04-18T02:44:07.008Z,11.00
2023-04-18T02:46:33.436Z,6.32
2023-04-18T02:48:59.959Z,11.63
2023-04-18T02:51:26.741Z,6.90
2023-04-18T02:53:55.353Z,17.02
2023-04-18T02:56:24.115Z,7.97
2023-04-18T02:58:50.535Z,8.63
2023-04-18T03:01:17.844Z,7.82
2023-04-18T03:03:44.342Z,9.95
2023-04-18T03:06:10.811Z,7.72
2023-04-18T03:08:37.248Z,10.45
2023-04-18T03:11:06.054Z,9.05
2023-04-18T03:13:32.939Z,8.80
2023-04-18T03:15:59.369Z,12.65
2023-04-18T03:18:26.032Z,8.63
2023-04-18T03:20:52.516Z,17.13
2023-04-18T03:23:19.122Z,24.30
2023-04-18T03:25:45.688Z,10.82
2023-04-18T03:28:12.071Z,10.65
2023-04-18T03:30:38.622Z,13.82
2023-04-18T03:33:05.200Z,8.70
2023-04-18T03:35:31.745Z,10.23
2023-04-18T03:37:58.265Z,7.50
2023-04-18T03:40:24.990Z,7.78
2023-04-18T03:42:51.495Z,10.95
2023-04-18T03:45:17.850Z,10.05
2023-04-18T03:47:44.223Z,11.20
2023-04-18T03:50:10.754Z,11.63
2023-04-18T03:52:39.469Z,8.52
2023-04-18T03:55:06.589Z,10.60
2023-04-18T03:57:33.064Z,17.98
2023-04-18T03:59:59.613Z,9.35
2023-04-18T04:02:26.317Z,9.25
2023-04-18T04:04:52.860Z,20.52
2023-04-18T04:07:24.248Z,10.77
2023-04-18T04:09:50.744Z,9.10
2023-04-18T04:12:17.368Z,8.50
2023-04-18T04:14:43.759Z,12.23
2023-04-18T04:17:10.314Z,8.40
2023-04-18T04:19:36.808Z,9.32
2023-04-18T04:22:03.308Z,14.35
2023-04-18T04:24:29.681Z,10.23
2023-04-18T04:26:56.349Z,10.55
2023-04-18T04:29:23.874Z,10.60
2023-04-18T04:31:52.518Z,14.80
2023-04-18T04:34:19.069Z,9.13
2023-04-18T04:36:45.452Z,13.70
2023-04-18T04:39:12.759Z,13.85
2023-04-18T04:41:39.443Z,12.85
2023-04-18T04:44:09.665Z,13.43
2023-04-18T04:46:39.389Z,9.48
2023-04-18T04:49:06.138Z,12.55
2023-04-18T04:51:32.662Z,10.50
2023-04-18T04:54:01.771Z,9.10
2023-04-18T04:56:28.172Z,9.27
2023-04-18T04:58:56.025Z,23.38
2023-04-18T05:01:25.077Z,12.63
2023-04-18T05:03:52.549Z,10.52
2023-04-18T05:06:21.120Z,8.20
2023-04-18T05:08:48.250Z,15.90
2023-04-18T05:11:15.165Z,10.77
2023-04-18T05:13:41.680Z,10.88
2023-04-18T05:16:10.950Z,11.90
2023-04-18T05:18:39.298Z,13.13
2023-04-18T05:21:08.032Z,11.85
2023-04-18T05:23:37.699Z,20.73
2023-04-18T05:26:05.327Z,15.27
2023-04-18T05:28:34.358Z,8.70
2023-04-18T05:31:03.599Z,11.60
2023-04-18T05:33:31.215Z,12.20
2023-04-18T05:36:00.657Z,11.23
2023-04-18T05:38:29.471Z,16.70
2023-04-18T05:40:55.968Z,10.60
2023-04-18T05:43:25.014Z,12.45
2023-04-18T05:45:56.544Z,15.80
2023-04-18T05:48:29.122Z,12.77
2023-04-18T05:50:55.757Z,12.45
2023-04-18T05:53:22.177Z,14.45
2023-04-18T05:55:48.806Z,21.23
2023-04-18T05:58:15.578Z,14.23
2023-04-18T06:00:42.782Z,14.82
2023-04-18T06:03:12.018Z,13.13
2023-04-18T06:05:40.869Z,16.73
2023-04-18T06:08:08.131Z,13.95
2023-04-18T06:10:39.091Z,15.85
2023-04-18T06:13:05.766Z,11.00
2023-04-18T06:15:34.619Z,11.93
2023-04-18T06:18:01.190Z,12.13
2023-04-18T06:20:27.606Z,12.55
2023-04-18T06:22:56.296Z,16.80
2023-04-18T06:25:22.794Z,12.60
2023-04-18T06:27:51.879Z,14.57
2023-04-18T06:30:21.808Z,12.50
2023-04-18T06:32:48.359Z,15.90
2023-04-18T06:35:15.576Z,14.77
2023-04-18T06:37:44.927Z,14.02
2023-04-18T06:40:12.026Z,11.35
2023-04-18T06:42:38.790Z,19.58
2023-04-18T06:45:06.459Z,13.68
2023-04-18T06:47:35.300Z,15.00
2023-04-18T06:50:04.505Z,15.45
2023-04-18T06:52:31.015Z,14.07
2023-04-18T06:54:57.525Z,15.65
2023-04-18T06:57:24.016Z,10.40
2023-04-18T06:59:50.396Z,11.68
2023-04-18T07:02:16.993Z,11.40
2023-04-18T07:04:46.624Z,12.30
2023-04-18T07:07:13.089Z,12.48
2023-04-18T07:09:39.618Z,14.50
2023-04-18T07:12:06.202Z,14.10
2023-04-18T07:14:35.386Z,11.13
2023-04-18T07:17:02.271Z,17.33
2023-04-18T07:19:28.703Z,12.70
2023-04-18T07:21:55.913Z,13.88
2023-04-18T07:24:24.945Z,14.07
2023-04-18T07:26:54.385Z,22.90
2023-04-18T07:29:21.512Z,14.85
2023-04-18T07:31:48.090Z,11.55
2023-04-18T07:34:15.378Z,18.08
2023-04-18T07:36:42.193Z,14.32
2023-04-18T07:39:08.961Z,13.00
2023-04-18T07:41:35.630Z,13.73
2023-04-18T07:44:02.428Z,13.48
2023-04-18T07:46:36.364Z,11.57
2023-04-18T07:49:03.489Z,21.58
2023-04-18T07:51:33.152Z,13.55
2023-04-18T07:54:02.334Z,17.58
2023-04-18T07:56:28.771Z,12.73
2023-04-18T07:58:55.662Z,17.23
2023-04-18T08:01:24.312Z,13.00
2023-04-18T08:03:51.784Z,12.18
2023-04-18T08:06:18.350Z,18.25
2023-04-18T08:08:44.819Z,13.60
2023-04-18T08:11:13.867Z,11.95
2023-04-18T08:13:40.245Z,15.90
2023-04-18T08:16:06.922Z,14.68
2023-04-18T08:18:33.362Z,13.07
2023-04-18T08:20:59.861Z,24.40
2023-04-18T08:23:26.461Z,15.38
2023-04-18T08:25:52.884Z,12.52
2023-04-18T08:28:19.484Z,13.25
2023-04-18T08:30:49.141Z,14.25
2023-04-18T08:33:16.149Z,12.00
2023-04-18T08:35:43.031Z,11.20
2023-04-18T08:38:09.806Z,11.43
2023-04-18T08:40:37.486Z,10.63
2023-04-18T08:43:09.439Z,12.25
2023-04-18T08:45:36.831Z,12.95
2023-04-18T08:48:07.611Z,12.23
2023-04-18T08:50:34.263Z,12.82
2023-04-18T08:53:03.769Z,13.52
2023-04-18T08:55:30.392Z,12.68
2023-04-18T08:57:57.778Z,13.93
2023-04-18T09:00:24.275Z,11.57
2023-04-18T09:02:55.198Z,9.32
2023-04-18T09:05:22.765Z,9.82
2023-04-18T09:07:51.611Z,10.13
2023-04-18T09:10:33.422Z,11.13
2023-04-18T09:13:02.968Z,16.02
2023-04-18T09:15:30.086Z,10.48
2023-04-18T09:17:58.513Z,9.50
2023-04-18T09:20:44.519Z,12.60
2023-04-18T09:23:16.102Z,12.55
2023-04-18T09:25:46.404Z,11.95
2023-04-18T09:28:29.510Z,12.38
2023-04-18T09:31:07.983Z,11.27
2023-04-18T09:33:34.552Z,9.90
2023-04-18T09:36:18.613Z,11.70
2023-04-18T09:38:45.360Z,9.05
2023-04-18T09:41:15.858Z,9.90
2023-04-18T09:43:45.303Z,12.15
2023-04-18T09:46:12.942Z,10.77
2023-04-18T09:48:40.291Z,9.15
2023-04-18T09:51:11.334Z,9.98
2023-04-18T09:53:44.511Z,11.70
2023-04-18T09:56:32.606Z,10.43
2023-04-18T09:59:08.222Z,12.10
2023-04-18T10:01:35.286Z,13.10
2023-04-18T10:04:04.123Z,12.70
2023-04-18T10:06:39.618Z,11.43
2023-04-18T10:09:09.268Z,9.57
2023-04-18T10:11:36.506Z,8.48
2023-04-18T10:14:07.730Z,12.52
2023-04-18T10:16:36.316Z,8.70
2023-04-18T10:19:26.675Z,10.68
2023-04-18T10:21:54.746Z,11.10
2023-04-18T10:24:49.832Z,11.38
2023-04-18T10:27:17.588Z,10.98
2023-04-18T10:29:53.585Z,10.30
2023-04-18T10:32:23.027Z,7.20
2023-04-18T10:34:50.466Z,9.30
2023-04-18T10:37:19.177Z,7.07
2023-04-18T10:39:50.387Z,5.07
2023-04-18T10:42:17.148Z,8.03
2023-04-18T10:44:43.694Z,9.85
2023-04-18T10:47:13.037Z,5.97
2023-04-18T10:49:39.547Z,11.55
2023-04-18T10:52:06.762Z,9.50
2023-04-18T10:54:49.725Z,6.97
2023-04-18T10:57:16.365Z,7.25
2023-04-18T10:59:48.679Z,9.68
2023-04-18T11:02:24.183Z,8.77
2023-04-18T11:04:58.001Z,7.10
2023-04-18T11:07:37.696Z,6.70
2023-04-18T11:10:05.809Z,7.78
2023-04-18T11:12:36.287Z,6.05
2023-04-18T11:15:09.143Z,9.63
2023-04-18T11:17:40.066Z,7.53
2023-04-18T11:20:15.112Z,4.73
2023-04-18T11:22:53.104Z,5.65
2023-04-18T11:25:23.680Z,5.80
2023-04-18T11:27:53.038Z,7.40
2023-04-18T11:30:19.606Z,6.68
2023-04-18T11:32:48.901Z,5.82
2023-04-18T11:35:16.366Z,5.22
2023-04-18T11:37:45.769Z,6.45
2023-04-18T11:40:16.362Z,7.20
2023-04-18T11:42:42.844Z,8.77
2023-04-18T11:45:13.699Z,7.65
2023-04-18T11:47:44.953Z,5.60
2023-04-18T11:50:12.622Z,4.53
2023-04-18T11:52:42.566Z,7.07
2023-04-18T11:55:25.252Z,7.38
2023-04-18T11:57:56.434Z,5.25
2023-04-18T12:00:41.906Z,9.38
2023-04-18T12:03:16.153Z,6.00
2023-04-18T12:05:43.169Z,4.72
2023-04-18T12:08:09.825Z,3.63
2023-04-18T12:10:36.360Z,6.65
2023-04-18T12:13:08.078Z,4.35
2023-04-18T12:15:39.331Z,4.85
2023-04-18T12:18:08.450Z,5.50
2023-04-18T12:20:46.590Z,4.05
2023-04-18T12:23:36.064Z,2.67
2023-04-18T12:26:04.550Z,3.92
2023-04-18T12:28:31.967Z,2.95
2023-04-18T12:30:59.012Z,3.58
2023-04-18T12:33:28.682Z,3.15
2023-04-18T12:35:55.987Z,2.72
2023-04-18T12:38:23.926Z,3.22
2023-04-18T12:40:51.784Z,5.88
2023-04-18T12:43:18.778Z,4.50
2023-04-18T12:45:46.358Z,3.45
2023-04-18T12:48:15.398Z,3.08
2023-04-18T12:50:41.953Z,3.20
2023-04-18T12:53:08.471Z,2.63
2023-04-18T12:55:35.058Z,2.67
2023-04-18T12:58:01.582Z,4.18
2023-04-18T13:00:33.417Z,4.13
2023-04-18T13:03:02.854Z,3.00
2023-04-18T13:05:32.833Z,2.80
2023-04-18T13:08:12.694Z,4.05
2023-04-18T13:13:08.666Z,7.15
2023-04-18T13:15:35.140Z,3.28
2023-04-18T13:18:06.521Z,5.20
2023-04-18T13:20:34.098Z,2.50
2023-04-18T13:23:02.711Z,2.03
2023-04-18T13:25:29.370Z,3.50
2023-04-18T13:27:57.357Z,2.80
2023-04-18T13:30:23.986Z,2.85
2023-04-18T13:32:50.703Z,3.38
2023-04-18T13:35:17.219Z,2.90
2023-04-18T13:37:46.254Z,2.60
2023-04-18T13:40:17.716Z,2.28
2023-04-18T13:42:44.236Z,2.83
2023-04-18T13:45:10.977Z,3.53
2023-04-18T13:47:37.641Z,2.75
2023-04-18T13:50:05.574Z,2.70
2023-04-18T13:52:31.982Z,3.17
2023-04-18T13:54:58.346Z,6.50
2023-04-18T13:57:24.864Z,3.38
2023-04-18T13:59:51.488Z,2.63
2023-04-18T14:02:18.026Z,2.78
2023-04-18T14:04:46.981Z,2.78
2023-04-18T14:07:16.533Z,1.80
2023-04-18T14:09:42.900Z,3.33
2023-04-18T14:12:09.394Z,2.80
2023-04-18T14:14:36.122Z,2.22
2023-04-18T14:17:05.384Z,5.13
2023-04-18T14:19:31.895Z,2.33
2023-04-18T14:22:00.777Z,4.40
2023-04-18T14:24:31.791Z,2.30
2023-04-18T14:26:58.370Z,6.45
2023-04-18T14:29:24.812Z,3.22
2023-04-18T14:31:51.248Z,2.55
2023-04-18T14:34:17.782Z,2.50
2023-04-18T14:36:44.199Z,5.47
2023-04-18T14:39:10.997Z,6.30
2023-04-18T14:41:37.870Z,2.88
2023-04-18T14:44:04.634Z,2.20
2023-04-18T14:46:33.670Z,3.20
2023-04-18T14:49:00.931Z,5.13
2023-04-18T14:51:32.338Z,2.30
2023-04-18T14:53:58.876Z,3.97
2023-04-18T14:56:27.651Z,4.18
2023-04-18T14:58:54.139Z,2.33
2023-04-18T15:01:23.233Z,2.20
2023-04-18T15:03:50.841Z,3.13
2023-04-18T15:06:17.430Z,2.90
2023-04-18T15:08:47.134Z,3.47
2023-04-18T15:11:13.644Z,4.25
2023-04-18T15:13:40.869Z,2.90
2023-04-18T15:16:07.773Z,2.42
2023-04-18T15:18:34.304Z,3.13
2023-04-18T15:21:00.783Z,3.67
2023-04-18T15:23:27.539Z,3.42
2023-04-18T15:25:54.135Z,2.83
2023-04-18T15:28:20.617Z,2.60
2023-04-18T15:30:47.412Z,3.22
2023-04-18T15:33:17.901Z,5.95
2023-04-18T15:35:45.158Z,2.90
2023-04-18T15:38:11.925Z,3.78
2023-04-18T15:40:38.369Z,3.30
2023-04-18T15:43:05.298Z,2.70
2023-04-18T15:45:31.949Z,6.05
2023-04-18T15:47:58.818Z,4.18
2023-04-18T15:50:25.788Z,4.50
2023-04-18T15:52:52.642Z,3.45
2023-04-18T15:55:19.817Z,3.05
2023-04-18T15:57:46.525Z,3.50
2023-04-18T16:00:17.318Z,3.45
2023-04-18T16:02:45.479Z,4.85
2023-04-18T16:05:13.259Z,3.08
2023-04-18T16:07:41.423Z,3.70
2023-04-18T16:10:10.699Z,5.05
2023-04-18T16:12:39.063Z,2.97
2023-04-18T16:15:07.327Z,4.18
2023-04-18T16:17:35.660Z,2.97
2023-04-18T16:20:02.504Z,3.67
2023-04-18T16:22:29.327Z,2.63
2023-04-18T16:24:56.116Z,2.97
2023-04-18T16:27:25.693Z,3.22
2023-04-18T16:29:53.855Z,3.50
2023-04-18T16:32:20.965Z,3.58
2023-04-18T16:34:48.392Z,6.07
2023-04-18T16:37:15.113Z,4.18
2023-04-18T16:39:41.937Z,4.75
2023-04-18T16:42:08.522Z,3.00
2023-04-18T16:44:39.253Z,7.28
2023-04-18T16:47:08.291Z,4.25
2023-04-18T16:49:34.949Z,3.50
2023-04-18T16:52:01.761Z,3.53
2023-04-18T16:54:28.413Z,5.65
2023-04-18T16:56:54.958Z,3.33
2023-04-18T16:59:23.484Z,5.05
2023-04-18T17:01:52.502Z,3.35
2023-04-18T17:04:19.004Z,2.92
2023-04-18T17:06:46.510Z,3.85
2023-04-18T17:09:19.719Z,4.30
2023-04-18T17:11:48.708Z,3.92
2023-04-18T17:14:16.526Z,3.83
2023-04-18T17:16:43.130Z,2.60
2023-04-18T17:19:10.401Z,3.38
2023-04-18T17:21:37.536Z,5.40
2023-04-18T17:24:06.632Z,3.92
2023-04-18T17:26:34.762Z,2.38
2023-04-18T17:29:02.836Z,3.22
2023-04-18T17:31:29.892Z,3.17
2023-04-18T17:33:57.786Z,3.30
2023-04-18T17:36:24.691Z,2.60
2023-04-18T17:38:51.101Z,2.47
2023-04-18T17:41:19.247Z,7.85
2023-04-18T17:43:46.573Z,4.03
2023-04-18T17:46:13.948Z,4.05
2023-04-18T17:48:41.022Z,3.47
2023-04-18T17:51:10.072Z,2.85
2023-04-18T17:53:36.610Z,8.38
2023-04-18T17:56:05.348Z,6.53
2023-04-18T17:58:31.901Z,3.75
2023-04-18T18:00:58.522Z,3.63
2023-04-18T18:03:25.555Z,4.47
2023-04-18T18:05:54.780Z,3.15
2023-04-18T18:08:22.063Z,3.58
2023-04-18T18:10:48.577Z,4.47
2023-04-18T18:13:15.677Z,3.45
2023-04-18T18:15:44.674Z,5.05
2023-04-18T18:18:11.375Z,4.85
2023-04-18T18:20:37.767Z,8.85
2023-04-18T18:23:06.777Z,3.80
2023-04-18T18:25:37.056Z,3.58
2023-04-18T18:28:07.186Z,5.40
2023-04-18T18:30:34.093Z,3.55
2023-04-18T18:33:03.510Z,4.03
2023-04-18T18:35:30.061Z,2.97
2023-04-18T18:37:56.422Z,5.38
2023-04-18T18:40:23.064Z,5.10
2023-04-18T18:42:56.333Z,5.90
2023-04-18T18:45:27.407Z,8.40
2023-04-18T18:47:53.986Z,4.63
2023-04-18T18:50:20.573Z,3.38
2023-04-18T18:52:46.948Z,5.88
2023-04-18T18:55:13.393Z,8.77
2023-04-18T18:57:39.866Z,8.50
2023-04-18T19:00:11.115Z,6.05
2023-04-18T19:02:38.759Z,6.70
2023-04-18T19:05:06.315Z,5.97
2023-04-18T19:07:32.669Z,7.35
2023-04-18T19:10:01.509Z,6.55
2023-04-18T19:12:28.271Z,10.05
2023-04-18T19:14:54.700Z,15.57
2023-04-18T19:17:24.649Z,6.22
2023-04-18T19:19:57.881Z,6.55
2023-04-18T19:22:24.943Z,8.32
2023-04-18T19:24:53.637Z,9.88
2023-04-18T19:27:20.014Z,6.93
2023-04-18T19:29:46.475Z,6.07
2023-04-18T19:32:15.546Z,7.82
2023-04-18T19:34:42.286Z,7.20
2023-04-18T19:37:08.643Z,13.77
2023-04-18T19:39:35.035Z,6.43
2023-04-18T19:42:03.895Z,8.13
2023-04-18T19:44:31.128Z,5.95
2023-04-18T19:46:57.653Z,6.63
2023-04-18T19:49:24.045Z,7.90
2023-04-18T19:51:52.555Z,7.20
2023-04-18T19:54:28.539Z,6.43
2023-04-18T19:56:54.915Z,7.47
2023-04-18T19:59:21.361Z,10.55
2023-04-18T20:01:48.045Z,9.65
2023-04-18T20:04:14.853Z,8.85
2023-04-18T20:06:44.565Z,7.43
2023-04-18T20:09:16.729Z,7.15
2023-04-18T20:11:43.568Z,7.43
2023-04-18T20:14:10.500Z,6.70
2023-04-18T20:16:36.985Z,7.07
2023-04-18T20:19:05.842Z,10.38
2023-04-18T20:21:32.271Z,9.63
2023-04-18T20:23:59.403Z,9.98
2023-04-18T20:26:25.954Z,8.07
2023-04-18T20:28:52.552Z,9.93
2023-04-18T20:31:19.106Z,8.40
2023-04-18T20:33:45.845Z,7.20
2023-04-18T20:36:14.119Z,6.57
2023-04-18T20:38:40.576Z,9.50
2023-04-18T20:41:10.627Z,6.60
2023-04-18T20:43:37.276Z,9.90
2023-04-18T20:46:03.835Z,8.48
2023-04-18T20:48:30.229Z,5.32
2023-04-18T20:50:56.748Z,9.05
2023-04-18T20:53:27.006Z,10.82
2023-04-18T20:56:00.876Z,10.57
2023-04-18T20:58:27.477Z,9.13
2023-04-18T21:00:53.918Z,7.72
2023-04-18T21:03:20.561Z,6.35
2023-04-18T21:05:47.383Z,9.07
2023-04-18T21:08:16.553Z,8.38
2023-04-18T21:10:43.025Z,7.80
2023-04-18T21:13:11.571Z,8.65
2023-04-18T21:15:38.178Z,13.32
2023-04-18T21:18:04.802Z,8.43
2023-04-18T21:20:31.500Z,7.50
2023-04-18T21:22:57.914Z,7.95
2023-04-18T21:25:24.391Z,11.02
2023-04-18T21:27:50.969Z,8.63
2023-04-18T21:30:20.013Z,9.43
2023-04-18T21:32:47.297Z,9.93
2023-04-18T21:35:13.782Z,9.27
2023-04-18T21:37:40.305Z,9.02
2023-04-18T21:40:07.385Z,10.30
2023-04-18T21:42:35.519Z,8.00
2023-04-18T21:45:04.363Z,10.30
2023-04-18T21:47:32.164Z,10.02
2023-04-18T21:50:02.752Z,15.25
2023-04-18T21:52:29.120Z,9.05
2023-04-18T21:54:59.207Z,8.32
2023-04-18T21:57:25.629Z,7.25
2023-04-18T21:59:52.088Z,13.50
2023-04-18T22:02:20.969Z,8.63
2023-04-18T22:04:48.018Z,8.07
2023-04-18T22:07:20.594Z,6.60
2023-04-18T22:09:47.240Z,9.55
2023-04-18T22:12:16.254Z,10.45
2023-04-18T22:14:48.192Z,10.02
2023-04-18T22:17:14.831Z,21.83
2023-04-18T22:19:41.540Z,10.57
2023-04-18T22:22:07.914Z,8.10
2023-04-18T22:24:34.269Z,8.65
2023-04-18T22:27:01.363Z,6.75
2023-04-18T22:29:27.704Z,11.30
2023-04-18T22:31:54.093Z,10.13
2023-04-18T22:34:20.712Z,7.93
2023-04-18T22:36:47.484Z,9.45
2023-04-18T22:39:13.942Z,7.20
2023-04-18T22:41:40.441Z,9.50
2023-04-18T22:44:06.893Z,8.15
2023-04-18T22:46:38.483Z,6.03
2023-04-18T22:49:07.351Z,8.98
2023-04-18T22:51:34.148Z,8.38
2023-04-18T22:54:00.712Z,7.28
2023-04-18T22:56:27.250Z,8.38
2023-04-18T22:58:53.772Z,9.50
2023-04-18T23:01:20.222Z,7.05
2023-04-18T23:03:46.930Z,7.05
2023-04-18T23:06:13.439Z,7.82
2023-04-18T23:08:39.853Z,9.82
2023-04-18T23:11:06.236Z,8.80
2023-04-18T23:13:32.645Z,13.38
2023-04-18T23:15:59.109Z,12.85
2023-04-18T23:18:30.841Z,16.85
2023-04-18T23:20:57.246Z,12.43
2023-04-18T23:23:23.667Z,15.88
2023-04-18T23:25:50.267Z,11.38
2023-04-18T23:28:17.119Z,9.30
2023-04-18T23:30:43.789Z,7.47
2023-04-18T23:33:10.544Z,9.15
2023-04-18T23:35:37.053Z,9.50
2023-04-18T23:38:03.480Z,9.88
2023-04-18T23:40:29.907Z,8.23
2023-04-18T23:42:56.262Z,7.15
2023-04-18T23:45:24.259Z,8.48
2023-04-18T23:47:53.298Z,7.15
2023-04-18T23:50:20.196Z,9.90
2023-04-18T23:52:46.731Z,9.02
2023-04-18T23:55:13.250Z,7.68
2023-04-18T23:57:39.687Z,9.30
